Time;durP1;ratioP1;P1;durP2;ratioP2;P2;SDS_P1;SDS_P2;PMS_P1;PMS_P2;Temp;Humidity;BMP_temperature;BMP_pressure;BME280_temperature;BME280_humidity;BME280_pressure;Samples;Min_cycle;Max_cycle;Signal;HPM_P1;HPM_P2
2022/10/06 00:01:15;;;;;;;7.90;4.90;;;;;;;11.29;80.76;100556.58;130472;1268;109032;-74
2022/10/06 00:04:22;;;;;;;6.40;5.10;;;;;;;11.30;80.81;100558.48;130526;1268;108691;-75
2022/10/06 00:07:28;;;;;;;7.80;5.30;;;;;;;11.29;80.82;100562.80;130467;1267;108828;-75
2022/10/06 00:10:34;;;;;;;6.90;5.50;;;;;;;11.28;80.71;100559.35;130428;1268;108799;-75
2022/10/06 00:13:40;;;;;;;7.70;4.80;;;;;;;11.27;81.05;100558.55;130387;1268;107401;-75
2022/10/06 00:16:45;;;;;;;7.00;4.90;;;;;;;11.27;81.12;100561.45;130453;1268;108688;-75
2022/10/06 00:19:50;;;;;;;9.90;5.00;;;;;;;11.28;81.24;100557.37;130399;1266;109019;-75
2022/10/06 00:22:57;;;;;;;12.40;7.80;;;;;;;11.31;81.42;100558.13;130479;1268;108659;-75
2022/10/06 00:26:02;;;;;;;14.90;10.80;;;;;;;11.34;81.41;100553.95;130389;1268;108196;-75
2022/10/06 00:29:08;;;;;;;12.00;9.30;;;;;;;11.36;81.55;100559.11;130406;1267;108539;-75
2022/10/06 00:32:14;;;;;;;10.10;7.90;;;;;;;11.38;81.58;100561.38;130468;1268;108770;-75
2022/10/06 00:35:19;;;;;;;8.30;6.40;;;;;;;11.34;81.71;100556.45;130428;1266;108676;-77
2022/10/06 00:38:26;;;;;;;7.20;5.20;;;;;;;11.32;81.55;100556.34;130424;1267;108662;-76
2022/10/06 00:41:31;;;;;;;7.50;5.10;;;;;;;11.32;81.84;100555.09;130502;1265;108946;-77
2022/10/06 00:44:37;;;;;;;9.00;5.30;;;;;;;11.35;81.70;100551.91;130255;1268;107622;-76
2022/10/06 00:47:42;;;;;;;6.10;4.50;;;;;;;11.37;81.96;100547.27;130286;1270;107577;-76
2022/10/06 00:50:48;;;;;;;6.10;4.90;;;;;;;11.38;81.63;100546.95;130247;1268;107716;-76
2022/10/06 00:53:56;;;;;;;8.40;5.10;;;;;;;11.37;81.81;100544.89;130165;1269;108529;-76
2022/10/06 00:57:03;;;;;;;5.60;4.10;;;;;;;11.34;81.73;100547.60;130346;1268;108869;-75
2022/10/06 01:00:11;;;;;;;5.30;4.00;;;;;;;11.30;81.85;100543.49;130278;1268;108766;-76
2022/10/06 01:03:21;;;;;;;11.80;4.20;;;;;;;11.29;81.75;100541.98;130326;1268;109027;-77
2022/10/06 01:06:26;;;;;;;5.40;4.20;;;;;;;11.30;81.80;100545.96;130290;1268;108782;-76
2022/10/06 01:09:33;;;;;;;7.10;4.30;;;;;;;11.32;81.87;100544.21;130049;1270;108899;-76
2022/10/06 01:12:39;;;;;;;7.00;4.40;;;;;;;11.31;82.02;100547.27;130320;1268;108647;-76
2022/10/06 01:15:51;;;;;;;7.00;4.60;;;;;;;11.30;82.28;100543.81;130339;1268;108627;-77
2022/10/06 01:18:58;;;;;;;6.10;4.20;;;;;;;11.28;82.08;100541.23;130261;1268;108762;-76
2022/10/06 01:22:07;;;;;;;6.70;3.90;;;;;;;11.26;82.02;100538.92;130226;1270;108684;-76
2022/10/06 01:25:16;;;;;;;8.00;4.70;;;;;;;11.27;82.38;100538.11;130272;1269;108624;-76
2022/10/06 01:28:23;;;;;;;7.50;4.30;;;;;;;11.30;82.50;100533.67;130350;1268;108779;-76
2022/10/06 01:31:29;;;;;;;6.30;3.70;;;;;;;11.32;82.27;100535.80;130229;1268;108903;-76
2022/10/06 01:34:34;;;;;;;7.20;4.40;;;;;;;11.33;82.35;100533.23;130254;1268;108964;-76
2022/10/06 01:37:40;;;;;;;6.60;4.10;;;;;;;11.32;82.32;100532.02;130242;1268;108138;-76
2022/10/06 01:40:45;;;;;;;5.90;3.70;;;;;;;11.30;82.32;100526.77;130284;1268;108997;-75
2022/10/06 01:43:51;;;;;;;5.10;3.60;;;;;;;11.29;82.76;100528.48;130455;1268;108805;-76
2022/10/06 01:46:56;;;;;;;4.80;3.70;;;;;;;11.30;82.82;100526.63;130508;1268;108803;-76
2022/10/06 01:50:03;;;;;;;6.40;4.20;;;;;;;11.32;82.70;100524.97;130584;1266;108936;-76
2022/10/06 01:53:09;;;;;;;7.30;4.30;;;;;;;11.33;82.71;100524.88;130524;1267;109180;-76
2022/10/06 01:56:14;;;;;;;8.40;4.20;;;;;;;11.34;82.63;100522.92;130480;1267;108880;-76
2022/10/06 01:59:21;;;;;;;8.60;4.50;;;;;;;11.33;82.73;100523.41;130494;1267;108735;-76
2022/10/06 02:02:30;;;;;;;5.20;3.90;;;;;;;11.31;82.93;100528.09;130339;1268;108648;-76
2022/10/06 02:05:37;;;;;;;6.70;3.70;;;;;;;11.30;83.04;100529.83;130504;1267;108947;-75
2022/10/06 02:08:43;;;;;;;7.20;4.00;;;;;;;11.29;82.92;100530.05;130398;1268;108861;-77
2022/10/06 02:11:49;;;;;;;6.80;4.20;;;;;;;11.32;83.32;100535.65;130477;1267;108658;-73
2022/10/06 02:14:55;;;;;;;6.60;4.10;;;;;;;11.35;82.89;100534.11;130490;1268;108793;-71
2022/10/06 02:18:01;;;;;;;6.70;4.00;;;;;;;11.34;83.00;100536.09;130461;1266;108656;-71
2022/10/06 02:21:13;;;;;;;5.00;3.60;;;;;;;11.34;83.05;100534.92;130241;1267;108822;-71
2022/10/06 02:24:18;;;;;;;3.80;3.00;;;;;;;11.31;82.97;100535.48;130580;1267;108801;-71
2022/10/06 02:27:24;;;;;;;6.00;3.70;;;;;;;11.31;83.20;100539.97;131283;1267;108862;-71
2022/10/06 02:30:30;;;;;;;4.10;3.70;;;;;;;11.31;83.04;100542.27;130321;1267;108668;-71
2022/10/06 02:33:36;;;;;;;4.60;3.90;;;;;;;11.32;83.11;100541.71;130529;1267;108741;-70
2022/10/06 02:36:43;;;;;;;4.20;3.60;;;;;;;11.32;83.42;100543.41;130389;1267;108749;-71
2022/10/06 02:39:48;;;;;;;6.60;4.10;;;;;;;11.32;83.22;100544.58;130509;1267;108726;-71
2022/10/06 02:42:54;;;;;;;5.20;3.60;;;;;;;11.28;83.50;100546.30;130443;1267;108948;-73
2022/10/06 02:46:02;;;;;;;5.80;3.30;;;;;;;11.25;83.42;100547.17;130519;1267;109770;-73
2022/10/06 02:49:08;;;;;;;5.60;3.80;;;;;;;11.25;83.35;100547.94;130432;1267;108692;-73
2022/10/06 02:52:14;;;;;;;5.10;3.60;;;;;;;11.25;83.47;100549.85;130318;1268;107695;-72
2022/10/06 02:55:20;;;;;;;6.00;3.80;;;;;;;11.26;83.70;100547.77;130400;1268;108838;-72
2022/10/06 02:58:25;;;;;;;6.30;4.20;;;;;;;11.27;83.83;100550.16;130443;1267;108686;-71
2022/10/06 03:01:31;;;;;;;5.80;3.20;;;;;;;11.26;83.81;100556.40;130423;1267;108871;-72
2022/10/06 03:04:39;;;;;;;4.40;3.00;;;;;;;11.24;83.38;100556.52;130384;1267;108868;-72
2022/10/06 03:07:44;;;;;;;5.60;3.60;;;;;;;11.22;83.71;100564.38;130466;1267;108871;-72
2022/10/06 03:10:50;;;;;;;3.90;3.30;;;;;;;11.23;83.67;100570.16;130311;1268;108609;-72
2022/10/06 03:13:55;;;;;;;4.20;3.60;;;;;;;11.26;83.67;100568.86;130440;1267;108807;-72
2022/10/06 03:17:03;;;;;;;7.20;3.50;;;;;;;11.27;83.76;100566.56;130509;1267;109168;-72
2022/10/06 03:20:09;;;;;;;5.30;3.90;;;;;;;11.26;83.61;100569.41;130463;1267;108814;-72
2022/10/06 03:23:15;;;;;;;5.40;3.60;;;;;;;11.21;83.65;100569.33;130440;1267;107580;-73
2022/10/06 03:26:23;;;;;;;4.80;3.20;;;;;;;11.18;83.87;100569.39;130385;1266;107718;-72
2022/10/06 03:29:29;;;;;;;7.60;4.70;;;;;;;11.17;83.97;100573.96;130426;1268;107395;-73
2022/10/06 03:32:36;;;;;;;10.10;6.10;;;;;;;11.19;84.05;100577.33;130418;1267;108639;-72
2022/10/06 03:35:41;;;;;;;10.00;5.20;;;;;;;11.20;83.96;100577.20;130445;1267;107767;-73
2022/10/06 03:38:47;;;;;;;7.70;4.80;;;;;;;11.18;83.85;100577.55;130160;1267;108942;-72
2022/10/06 03:41:52;;;;;;;9.00;4.40;;;;;;;11.17;84.11;100576.46;130330;1268;109063;-72
2022/10/06 03:44:58;;;;;;;5.30;3.90;;;;;;;11.15;84.21;100581.05;130411;1267;108655;-71
2022/10/06 03:48:04;;;;;;;7.20;3.90;;;;;;;11.16;84.03;100580.70;130393;1267;108725;-71
2022/10/06 03:51:14;;;;;;;5.50;4.20;;;;;;;11.17;84.21;100584.45;130403;1267;108836;-72
2022/10/06 03:54:19;;;;;;;5.50;3.90;;;;;;;11.17;84.11;100586.05;130449;1268;108981;-73
2022/10/06 03:57:26;;;;;;;6.90;4.60;;;;;;;11.16;84.27;100591.09;130479;1267;108919;-76
2022/10/06 04:00:33;;;;;;;6.00;4.30;;;;;;;11.16;84.27;100590.98;130347;1268;109147;-73
2022/10/06 04:03:39;;;;;;;6.80;3.90;;;;;;;11.14;84.39;100596.19;130411;1267;108811;-71
2022/10/06 04:06:45;;;;;;;5.80;3.70;;;;;;;11.10;84.39;100599.89;130409;1267;108719;-72
2022/10/06 04:09:54;;;;;;;5.40;3.70;;;;;;;11.11;84.66;100601.29;130220;1267;108682;-73
2022/10/06 04:12:59;;;;;;;8.30;4.90;;;;;;;11.12;84.52;100607.61;130145;1268;108947;-73
2022/10/06 04:16:13;;;;;;;6.20;4.60;;;;;;;11.13;84.63;100604.09;130306;1267;108612;-71
2022/10/06 04:19:19;;;;;;;8.60;4.50;;;;;;;11.13;84.86;100613.90;130461;1268;109791;-72
2022/10/06 04:22:28;;;;;;;6.40;4.90;;;;;;;11.11;84.97;100604.66;130258;1267;108731;-71
2022/10/06 04:25:34;;;;;;;5.80;4.20;;;;;;;11.08;84.52;100608.00;130116;1268;108877;-72
2022/10/06 04:28:42;;;;;;;8.10;5.20;;;;;;;11.06;84.54;100613.70;130527;1267;108603;-72
2022/10/06 04:31:49;;;;;;;6.60;5.00;;;;;;;11.05;84.29;100615.15;130351;1268;108970;-71
2022/10/06 04:35:15;;;;;;;5.80;4.60;;;;;;;11.07;84.66;100618.43;130424;1267;108714;-72
2022/10/06 04:38:20;;;;;;;9.50;5.40;;;;;;;11.07;84.67;100624.27;130317;1267;108740;-73
2022/10/06 04:41:30;;;;;;;8.80;6.00;;;;;;;11.07;84.67;100625.38;130375;1268;108628;-73
2022/10/06 04:44:36;;;;;;;8.20;5.90;;;;;;;11.04;84.73;100628.08;130472;1268;109183;-73
2022/10/06 04:47:42;;;;;;;10.20;6.50;;;;;;;11.02;85.05;100630.09;130436;1268;107454;-72
2022/10/06 04:50:56;;;;;;;8.90;6.80;;;;;;;11.03;84.85;100639.45;130406;1268;107973;-72
2022/10/06 04:54:02;;;;;;;9.60;6.40;;;;;;;11.05;84.94;100640.33;130479;1267;108769;-72
2022/10/06 04:57:10;;;;;;;14.90;8.60;;;;;;;11.08;85.08;100645.22;130438;1268;108937;-72
2022/10/06 05:00:24;;;;;;;14.60;8.70;;;;;;;11.09;84.94;100646.65;130438;1267;108726;-73
2022/10/06 05:03:30;;;;;;;16.30;7.80;;;;;;;11.11;85.33;100647.77;130455;1267;108845;-72
2022/10/06 05:06:38;;;;;;;14.70;7.80;;;;;;;11.13;84.98;100653.41;130374;1267;108651;-72
2022/10/06 05:09:44;;;;;;;14.40;7.90;;;;;;;11.16;85.33;100654.75;130464;1268;107653;-74
2022/10/06 05:12:49;;;;;;;17.30;8.80;;;;;;;11.22;85.40;100655.98;130503;1268;108920;-72
2022/10/06 05:15:59;;;;;;;12.30;7.00;;;;;;;11.28;85.25;100660.34;130362;1267;108668;-72
2022/10/06 05:19:07;;;;;;;12.20;7.00;;;;;;;11.31;85.41;100663.55;130516;1267;108703;-72
2022/10/06 05:22:13;;;;;;;12.20;7.80;;;;;;;11.32;85.53;100661.34;130510;1267;108837;-72
2022/10/06 05:25:19;;;;;;;9.80;6.20;;;;;;;11.34;85.35;100663.30;130380;1267;109262;-72
2022/10/06 05:28:26;;;;;;;10.50;5.60;;;;;;;11.37;85.59;100665.66;130424;1268;108676;-72
2022/10/06 05:31:37;;;;;;;6.70;4.50;;;;;;;11.43;85.80;100660.86;130484;1268;108882;-74
2022/10/06 05:34:43;;;;;;;6.00;4.20;;;;;;;11.51;85.53;100664.16;130402;1268;108735;-71
2022/10/06 05:37:49;;;;;;;6.20;4.20;;;;;;;11.55;85.73;100670.87;130570;1267;108851;-71
2022/10/06 05:41:01;;;;;;;6.30;4.10;;;;;;;11.60;85.63;100675.29;130562;1267;108213;-72
2022/10/06 05:44:07;;;;;;;5.20;3.70;;;;;;;11.62;85.50;100682.16;130581;1267;108701;-72
2022/10/06 05:47:15;;;;;;;4.60;3.40;;;;;;;11.68;85.78;100686.59;130942;1266;109390;-72
2022/10/06 05:50:20;;;;;;;4.80;3.50;;;;;;;11.78;85.63;100690.09;130604;1268;108828;-72
2022/10/06 05:53:27;;;;;;;6.80;4.10;;;;;;;11.92;85.71;100699.27;130358;1267;108806;-72
2022/10/06 05:56:34;;;;;;;4.90;3.70;;;;;;;12.10;85.66;100706.16;130326;1267;109008;-70
2022/10/06 05:59:41;;;;;;;6.90;4.00;;;;;;;12.30;85.95;100711.79;130267;1268;108929;-70
2022/10/06 06:02:46;;;;;;;8.00;4.00;;;;;;;12.45;85.82;100721.70;130323;1268;108625;-70
2022/10/06 06:05:52;;;;;;;5.50;3.50;;;;;;;12.57;85.96;100724.75;130300;1267;107695;-71
2022/10/06 06:08:59;;;;;;;5.30;3.40;;;;;;;12.70;85.68;100727.01;130369;1268;108573;-71
2022/10/06 06:12:06;;;;;;;7.50;4.00;;;;;;;12.83;85.67;100735.27;130200;1267;108581;-71
2022/10/06 06:18:48;;;;;;;4.90;4.00;;;;;;;13.05;85.58;100739.00;130223;1268;108860;-71
2022/10/06 06:21:54;;;;;;;5.60;3.40;;;;;;;13.17;85.65;100741.50;130396;1268;109028;-73
2022/10/06 06:25:00;;;;;;;6.70;4.00;;;;;;;13.31;85.69;100746.15;130411;1267;107358;-71
2022/10/06 06:28:06;;;;;;;5.20;3.70;;;;;;;13.43;85.60;100754.20;130454;1267;108838;-72
2022/10/06 06:31:14;;;;;;;5.20;3.90;;;;;;;13.54;85.45;100757.39;130345;1267;108637;-71
2022/10/06 06:34:19;;;;;;;4.90;3.70;;;;;;;13.63;85.61;100761.25;130181;1267;108641;-71
2022/10/06 06:37:30;;;;;;;5.00;3.70;;;;;;;13.70;85.40;100767.88;130456;1267;108792;-70
2022/10/06 06:40:39;;;;;;;7.30;3.80;;;;;;;13.74;85.22;100773.64;130473;1265;108841;-71
2022/10/06 06:43:46;;;;;;;10.40;3.70;;;;;;;13.78;85.38;100777.60;130283;1267;108900;-71
2022/10/06 06:47:12;;;;;;;4.10;3.30;;;;;;;13.82;85.15;100789.88;130355;1267;108927;-71
2022/10/06 06:50:17;;;;;;;5.80;3.60;;;;;;;13.87;85.11;100794.64;130429;1267;107695;-71
2022/10/06 06:53:23;;;;;;;4.70;3.30;;;;;;;13.95;85.37;100796.92;130214;1267;108816;-70
2022/10/06 06:56:33;;;;;;;4.90;3.90;;;;;;;14.02;85.08;100799.58;130277;1268;108760;-70
2022/10/06 06:59:40;;;;;;;6.00;3.50;;;;;;;14.09;84.91;100803.61;130404;1267;108823;-70
2022/10/06 07:02:53;;;;;;;4.80;3.60;;;;;;;14.15;85.00;100811.40;130358;1267;108697;-71
2022/10/06 07:06:08;;;;;;;6.80;3.60;;;;;;;14.20;85.32;100815.73;130340;1267;108738;-71
2022/10/06 07:09:14;;;;;;;5.90;3.30;;;;;;;14.26;85.04;100819.77;130389;1267;108697;-73
2022/10/06 07:12:20;;;;;;;5.90;4.00;;;;;;;14.36;85.01;100821.34;130467;1267;108902;-72
2022/10/06 07:25:46;;;;;;;6.50;3.60;;;;;;;14.98;84.83;100823.67;130466;1268;109670;-71
2022/10/06 07:28:52;;;;;;;5.60;3.40;;;;;;;15.07;84.83;100824.85;130321;1268;108825;-70
2022/10/06 07:31:58;;;;;;;3.10;2.80;;;;;;;15.15;84.48;100823.09;130282;1268;107936;-74
2022/10/06 07:35:05;;;;;;;5.40;3.30;;;;;;;15.25;84.55;100823.89;130412;1267;108633;-73
2022/10/06 07:38:11;;;;;;;6.50;3.50;;;;;;;15.36;84.31;100823.73;130375;1268;108876;-72
2022/10/06 07:41:26;;;;;;;5.20;3.40;;;;;;;15.45;84.25;100829.37;130482;1267;108991;-72
2022/10/06 07:44:35;;;;;;;5.70;3.30;;;;;;;15.51;84.24;100832.72;130340;1268;108617;-72
2022/10/06 07:47:40;;;;;;;10.00;4.40;;;;;;;15.52;84.14;100838.81;130533;1267;107179;-74
2022/10/06 07:50:48;;;;;;;8.40;4.20;;;;;;;15.56;84.07;100839.67;130386;1268;108750;-75
2022/10/06 07:53:57;;;;;;;6.90;3.40;;;;;;;15.66;84.09;100840.49;130453;1267;108816;-72
2022/10/06 07:57:07;;;;;;;5.00;3.10;;;;;;;15.82;84.03;100838.25;130433;1268;108764;-73
2022/10/06 08:00:15;;;;;;;5.60;3.30;;;;;;;15.98;83.86;100842.14;130418;1268;108752;-76
2022/10/06 08:03:21;;;;;;;5.10;3.40;;;;;;;16.13;83.76;100835.20;130535;1268;108617;-74
2022/10/06 08:06:27;;;;;;;3.50;2.90;;;;;;;16.28;83.46;100840.66;130589;1268;108737;-73
2022/10/06 08:09:32;;;;;;;4.10;3.10;;;;;;;16.40;83.33;100840.96;130524;1267;108761;-73
2022/10/06 08:12:39;;;;;;;4.80;3.40;;;;;;;16.50;83.33;100852.59;130582;1267;108618;-71
2022/10/06 08:15:44;;;;;;;4.80;3.40;;;;;;;16.59;83.27;100857.79;130375;1267;109602;-73
2022/10/06 08:18:54;;;;;;;3.20;2.70;;;;;;;16.71;83.06;100856.38;130530;1268;108616;-72
2022/10/06 08:21:59;;;;;;;4.60;2.90;;;;;;;16.82;82.94;100854.56;130391;1267;108775;-72
2022/10/06 08:25:06;;;;;;;4.90;3.20;;;;;;;16.83;82.54;100858.60;130552;1267;108767;-73
2022/10/06 08:28:12;;;;;;;4.50;3.10;;;;;;;16.83;82.47;100863.77;130458;1268;108679;-72
2022/10/06 08:31:20;;;;;;;3.90;3.10;;;;;;;16.92;82.28;100863.70;130430;1267;108525;-73
2022/10/06 08:34:25;;;;;;;5.90;3.30;;;;;;;16.95;82.08;100867.77;130377;1268;108638;-73
2022/10/06 08:37:31;;;;;;;4.80;3.10;;;;;;;16.92;81.82;100870.00;130348;1268;108640;-73
2022/10/06 08:40:36;;;;;;;4.50;2.80;;;;;;;16.90;81.81;100871.90;130534;1267;107575;-72
2022/10/06 08:43:43;;;;;;;3.10;2.70;;;;;;;16.91;81.88;100879.31;130533;1267;108841;-73
2022/10/06 08:46:56;;;;;;;4.40;3.00;;;;;;;16.99;81.57;100883.90;130460;1268;108796;-74
2022/10/06 08:50:03;;;;;;;4.70;3.20;;;;;;;17.14;80.80;100889.73;130366;1267;109412;-73
2022/10/06 08:53:16;;;;;;;4.30;3.20;;;;;;;17.39;79.33;100896.13;130526;1268;108747;-73
2022/10/06 08:56:25;;;;;;;3.70;2.60;;;;;;;17.55;78.63;100896.63;130583;1267;108784;-73
2022/10/06 08:59:35;;;;;;;3.60;2.60;;;;;;;17.69;79.98;100901.20;130546;1267;108755;-72
2022/10/06 09:02:45;;;;;;;10.70;4.20;;;;;;;17.72;78.34;100904.99;130477;1267;108864;-72
2022/10/06 09:05:52;;;;;;;8.60;3.90;;;;;;;17.56;78.22;100920.35;130408;1268;108675;-72
2022/10/06 09:09:03;;;;;;;5.60;3.00;;;;;;;17.50;79.26;100924.15;130489;1267;108714;-72
2022/10/06 09:12:19;;;;;;;3.50;2.90;;;;;;;17.59;78.66;100926.67;130524;1267;108874;-70
2022/10/06 09:15:33;;;;;;;5.40;2.80;;;;;;;17.79;78.73;100923.18;130567;1267;108919;-72
2022/10/06 09:18:44;;;;;;;3.80;2.70;;;;;;;18.00;76.54;100928.83;130513;1267;108986;-70
2022/10/06 09:21:52;;;;;;;3.60;2.70;;;;;;;18.09;77.24;100926.84;130456;1267;108970;-73
2022/10/06 09:25:00;;;;;;;4.60;2.70;;;;;;;18.20;77.76;100930.11;130478;1267;108785;-71
2022/10/06 09:28:14;;;;;;;4.20;3.00;;;;;;;18.33;77.57;100934.42;130414;1267;107291;-73
2022/10/06 09:31:23;;;;;;;3.30;2.60;;;;;;;18.36;75.91;100935.39;130469;1268;108594;-72
2022/10/06 09:34:37;;;;;;;3.80;2.70;;;;;;;18.33;77.17;100933.90;130527;1267;108869;-72
2022/10/06 09:37:55;;;;;;;5.20;2.40;;;;;;;18.34;76.95;100933.16;130394;1268;108680;-73
2022/10/06 09:41:01;;;;;;;3.40;2.80;;;;;;;18.32;77.25;100935.15;130382;1267;108702;-73
2022/10/06 09:44:23;;;;;;;4.90;2.80;;;;;;;18.33;77.28;100933.61;130353;1267;108422;-72
2022/10/06 09:47:43;;;;;;;7.20;3.00;;;;;;;18.35;77.11;100930.15;130428;1267;108941;-73
2022/10/06 09:51:08;;;;;;;4.20;2.50;;;;;;;18.40;77.52;100934.33;130302;1268;108660;-73
2022/10/06 09:54:14;;;;;;;2.80;2.50;;;;;;;18.55;77.65;100938.02;130404;1267;107438;-75
2022/10/06 09:57:25;;;;;;;4.20;2.30;;;;;;;18.79;77.04;100939.39;130392;1267;109232;-72
2022/10/06 10:00:34;;;;;;;4.70;2.50;;;;;;;18.98;75.42;100946.36;130491;1268;108941;-71
2022/10/06 10:03:50;;;;;;;4.30;2.40;;;;;;;19.05;75.40;100954.55;130553;1267;108638;-71
2022/10/06 10:07:12;;;;;;;3.60;2.60;;;;;;;19.11;75.25;100961.15;130580;1267;108750;-71
2022/10/06 10:10:24;;;;;;;3.60;3.00;;;;;;;19.12;73.59;100970.31;130453;1267;108670;-71
2022/10/06 10:13:41;;;;;;;5.50;3.00;;;;;;;19.13;74.76;100973.80;130528;1268;108692;-72
2022/10/06 10:16:48;;;;;;;4.20;3.10;;;;;;;19.21;74.34;100973.11;130498;1268;108818;-72
2022/10/06 10:19:55;;;;;;;5.60;3.10;;;;;;;19.31;73.75;100980.23;130453;1268;108752;-72
2022/10/06 10:23:03;;;;;;;6.20;2.90;;;;;;;19.30;73.96;100985.92;130418;1268;108702;-73
2022/10/06 10:26:25;;;;;;;5.00;3.50;;;;;;;19.29;73.66;100993.74;130464;1267;108678;-72
2022/10/06 10:29:45;;;;;;;3.80;3.00;;;;;;;19.23;74.13;101002.65;130485;1268;108673;-73
2022/10/06 10:33:00;;;;;;;4.00;3.10;;;;;;;19.16;73.67;101004.70;130403;1267;108571;-71
2022/10/06 10:36:08;;;;;;;4.40;2.90;;;;;;;19.11;74.16;101006.13;130470;1267;108693;-72
2022/10/06 10:39:24;;;;;;;3.30;3.00;;;;;;;19.06;73.12;101017.20;130312;1267;108715;-73
2022/10/06 10:42:37;;;;;;;4.50;3.20;;;;;;;18.97;73.95;101023.45;130438;1267;108220;-72
2022/10/06 10:45:47;;;;;;;3.90;3.20;;;;;;;18.85;73.24;101028.75;130468;1267;108561;-71
2022/10/06 10:48:58;;;;;;;4.80;3.30;;;;;;;18.74;73.22;101028.70;130437;1268;108854;-72
2022/10/06 10:52:10;;;;;;;4.20;3.80;;;;;;;18.66;73.53;101030.38;130328;1268;108785;-71
2022/10/06 10:55:27;;;;;;;4.40;3.50;;;;;;;18.64;74.01;101024.33;130531;1267;108967;-71
2022/10/06 10:58:35;;;;;;;4.30;3.40;;;;;;;18.63;74.00;101018.21;130349;1268;152834;-72
2022/10/06 11:01:49;;;;;;;3.70;3.30;;;;;;;18.68;74.14;101027.24;130434;1268;108998;-71
2022/10/06 11:05:01;;;;;;;4.30;3.50;;;;;;;18.78;74.09;101032.30;130357;1268;108757;-72
2022/10/06 11:08:09;;;;;;;;;;;;;;;18.86;73.49;101032.63;130482;1267;105843;-72
2022/10/06 11:11:23;;;;;;;5.10;3.90;;;;;;;18.81;73.79;101034.47;130441;1268;108638;-71
2022/10/06 11:14:47;;;;;;;4.40;3.90;;;;;;;18.79;73.91;101031.77;130412;1267;108696;-73
2022/10/06 11:17:58;;;;;;;6.50;3.90;;;;;;;18.78;73.54;101039.19;130258;1267;108799;-71
2022/10/06 11:21:10;;;;;;;5.10;3.90;;;;;;;18.84;73.32;101038.81;130253;1267;108756;-70
2022/10/06 11:24:26;;;;;;;5.20;4.10;;;;;;;18.88;72.83;101039.02;130237;1268;108773;-71
2022/10/06 11:27:43;;;;;;;4.20;3.70;;;;;;;18.94;72.44;101043.20;130330;1268;108738;-70
2022/10/06 11:30:59;;;;;;;4.40;3.70;;;;;;;18.99;72.81;101040.98;130254;1268;108083;-73
2022/10/06 11:34:06;;;;;;;3.50;3.20;;;;;;;18.92;72.76;101041.94;130305;1268;107884;-72
2022/10/06 11:37:20;;;;;;;4.70;3.90;;;;;;;18.99;72.76;101038.44;130363;1268;107230;-71
2022/10/06 11:40:53;;;;;;;4.60;3.30;;;;;;;19.16;73.03;101038.10;130423;1268;108745;-72
2022/10/06 11:44:03;;;;;;;5.50;3.60;;;;;;;19.31;72.57;101044.02;130318;1267;108713;-72
2022/10/06 11:47:11;;;;;;;3.60;3.30;;;;;;;19.26;72.32;101045.92;130439;1268;108799;-73
2022/10/06 11:50:37;;;;;;;5.40;2.90;;;;;;;19.11;70.99;101057.86;130394;1268;108816;-72
2022/10/06 11:53:43;;;;;;;3.50;3.20;;;;;;;18.99;71.74;101061.91;130497;1268;108675;-73
2022/10/06 11:56:48;;;;;;;4.80;2.90;;;;;;;18.85;70.66;101058.57;130597;1266;108823;-72
2022/10/06 11:59:55;;;;;;;3.00;2.60;;;;;;;18.79;71.80;101049.66;130471;1268;108862;-72
2022/10/06 12:03:46;;;;;;;5.70;2.80;;;;;;;18.83;72.02;101043.23;130449;1268;108474;-72
2022/10/06 12:06:58;;;;;;;3.00;2.60;;;;;;;18.83;71.43;101050.23;130578;1268;108044;-72
2022/10/06 12:10:40;;;;;;;3.30;2.30;;;;;;;18.85;71.16;101055.63;130438;1267;108684;-72
2022/10/06 12:13:53;;;;;;;3.50;2.90;;;;;;;18.94;71.30;101061.90;130277;1268;108739;-72
2022/10/06 12:17:06;;;;;;;3.20;2.50;;;;;;;19.10;71.11;101068.13;130581;1267;108706;-74
2022/10/06 12:20:21;;;;;;;3.40;2.50;;;;;;;19.34;71.36;101066.38;130378;1268;108764;-74
2022/10/06 12:23:43;;;;;;;4.20;2.50;;;;;;;19.46;70.39;101072.25;130346;1268;108573;-74
2022/10/06 12:27:05;;;;;;;3.10;2.20;;;;;;;19.39;70.60;101077.27;130425;1268;107694;-72
2022/10/06 12:30:22;;;;;;;2.60;2.30;;;;;;;19.23;69.62;101083.82;130512;1267;108560;-72
2022/10/06 12:33:38;;;;;;;2.70;2.10;;;;;;;19.14;70.18;101088.11;130466;1268;108685;-72
2022/10/06 12:36:43;;;;;;;2.40;1.90;;;;;;;19.18;69.97;101095.87;130471;1268;108769;-74
2022/10/06 12:39:49;;;;;;;2.50;1.80;;;;;;;19.21;68.19;101097.35;130404;1268;108870;-72
2022/10/06 12:43:26;;;;;;;3.50;1.90;;;;;;;19.21;68.51;101099.73;130474;1268;108674;-72
2022/10/06 12:46:41;;;;;;;2.50;1.80;;;;;;;19.27;66.83;101106.83;130500;1267;108220;-71
2022/10/06 12:49:52;;;;;;;1.90;1.50;;;;;;;19.18;66.58;101114.00;130339;1268;108855;-73
2022/10/06 12:53:04;;;;;;;1.90;1.30;;;;;;;19.11;67.42;101118.33;130468;1268;108625;-71
2022/10/06 12:56:19;;;;;;;;;;;;;;;19.03;66.25;101117.94;130349;1268;108832;-71
2022/10/06 12:59:27;;;;;;;3.60;2.50;;;;;;;18.85;63.14;101129.67;130433;1268;108861;-71
2022/10/06 13:02:33;;;;;;;2.90;1.90;;;;;;;18.70;64.24;101130.59;130559;1268;108932;-71
2022/10/06 13:05:39;;;;;;;3.70;2.00;;;;;;;18.75;62.99;101133.98;130292;1268;107757;-71
2022/10/06 13:08:44;;;;;;;3.10;1.60;;;;;;;18.82;65.22;101139.30;130437;1267;108733;-72
2022/10/06 13:11:50;;;;;;;4.00;1.80;;;;;;;18.92;61.06;101142.02;130426;1267;108878;-71
2022/10/06 13:15:18;;;;;;;3.10;1.70;;;;;;;18.86;60.91;101154.73;130475;1268;108700;-71
2022/10/06 13:18:25;;;;;;;3.30;1.70;;;;;;;18.69;60.55;101158.65;130463;1267;108699;-72
2022/10/06 13:21:33;;;;;;;2.30;1.70;;;;;;;18.50;60.77;101158.60;130507;1268;109613;-71
2022/10/06 13:24:39;;;;;;;4.20;2.40;;;;;;;18.29;61.51;101161.37;130365;1268;108699;-71
2022/10/06 13:27:51;;;;;;;4.80;2.10;;;;;;;18.09;61.55;101166.89;130457;1268;108979;-73
2022/10/06 13:30:58;;;;;;;3.40;2.10;;;;;;;18.00;62.72;101169.13;130511;1268;106860;-71
2022/10/06 13:34:06;;;;;;;3.10;2.20;;;;;;;17.99;63.03;101169.84;130388;1268;108870;-71
2022/10/06 13:37:15;;;;;;;2.90;2.10;;;;;;;17.94;62.42;101167.64;130463;1267;108708;-71
2022/10/06 13:40:31;;;;;;;4.10;2.70;;;;;;;17.85;62.61;101168.91;130553;1268;108734;-72
2022/10/06 13:43:42;;;;;;;14.30;10.00;;;;;;;17.78;62.13;101170.99;130559;1268;108567;-71
2022/10/06 13:46:50;;;;;;;7.40;6.50;;;;;;;17.76;62.84;101174.04;130661;1268;108788;-73
2022/10/06 13:50:00;;;;;;;4.90;2.70;;;;;;;17.78;63.50;101179.81;130546;1267;108971;-72
2022/10/06 13:53:20;;;;;;;3.40;2.20;;;;;;;17.82;63.93;101179.33;130570;1268;108701;-71
2022/10/06 13:56:36;;;;;;;3.10;2.60;;;;;;;17.87;63.51;101181.60;130557;1268;108832;-72
2022/10/06 13:59:42;;;;;;;4.50;2.20;;;;;;;17.97;64.11;101180.48;130350;1268;108692;-71
2022/10/06 14:02:49;;;;;;;2.60;2.20;;;;;;;18.02;63.68;101183.47;130375;1268;108981;-71
2022/10/06 14:06:09;;;;;;;22.10;16.10;;;;;;;18.07;63.08;101186.73;130443;1268;108849;-74
2022/10/06 14:09:20;;;;;;;7.60;4.90;;;;;;;18.05;63.26;101189.13;130281;1268;108054;-73
2022/10/06 14:12:25;;;;;;;7.70;4.20;;;;;;;18.05;63.74;101192.65;130369;1267;108693;-72
2022/10/06 14:15:38;;;;;;;3.20;2.70;;;;;;;18.04;62.71;101198.39;130478;1268;108189;-71
2022/10/06 14:18:52;;;;;;;2.80;2.10;;;;;;;17.95;62.37;101198.93;130385;1268;108656;-71
2022/10/06 14:21:58;;;;;;;3.40;1.90;;;;;;;17.84;62.67;101204.15;130430;1268;108920;-72
2022/10/06 14:25:10;;;;;;;2.70;1.90;;;;;;;17.67;62.47;101205.66;130328;1268;108880;-70
2022/10/06 14:28:15;;;;;;;4.50;2.30;;;;;;;17.50;63.01;101206.39;130293;1268;108840;-71
2022/10/06 14:31:22;;;;;;;4.40;2.20;;;;;;;17.37;62.91;101215.79;130339;1268;108994;-72
2022/10/06 14:34:28;;;;;;;6.20;3.40;;;;;;;17.24;62.48;101220.45;130449;1268;108906;-71